sensor_id;sensor_type;location;lat;lon;timestamp;P1;durP1;ratioP1;P2;durP2;ratioP2
60078;SDS011;45951;45.824;8.824;2022-12-18T00:04:22;16.35;;;11.40;;
60078;SDS011;45951;45.824;8.824;2022-12-18T00:10:23;15.77;;;11.73;;
60078;SDS011;45951;45.824;8.824;2022-12-18T00:16:24;17.07;;;11.30;;
60078;SDS011;45951;45.824;8.824;2022-12-18T00:22:25;16.80;;;11.25;;
60078;SDS011;45951;45.824;8.824;2022-12-18T00:28:26;15.38;;;11.13;;
60078;SDS011;45951;45.824;8.824;2022-12-18T00:34:26;13.77;;;10.57;;
60078;SDS011;45951;45.824;8.824;2022-12-18T00:40:26;15.70;;;11.70;;
60078;SDS011;45951;45.824;8.824;2022-12-18T00:46:27;16.50;;;11.38;;
60078;SDS011;45951;45.824;8.824;2022-12-18T00:52:27;14.05;;;10.77;;
60078;SDS011;45951;45.824;8.824;2022-12-18T00:58:27;15.90;;;11.65;;
60078;SDS011;45951;45.824;8.824;2022-12-18T01:04:28;15.38;;;10.68;;
60078;SDS011;45951;45.824;8.824;2022-12-18T01:10:31;15.43;;;10.98;;
60078;SDS011;45951;45.824;8.824;2022-12-18T01:16:31;16.73;;;11.20;;
60078;SDS011;45951;45.824;8.824;2022-12-18T01:22:32;14.45;;;10.10;;
60078;SDS011;45951;45.824;8.824;2022-12-18T01:28:32;15.50;;;11.32;;
60078;SDS011;45951;45.824;8.824;2022-12-18T01:34:32;15.90;;;10.98;;
60078;SDS011;45951;45.824;8.824;2022-12-18T01:40:34;13.95;;;9.88;;
60078;SDS011;45951;45.824;8.824;2022-12-18T01:46:34;14.75;;;10.45;;
60078;SDS011;45951;45.824;8.824;2022-12-18T01:52:35;14.77;;;9.85;;
60078;SDS011;45951;45.824;8.824;2022-12-18T01:58:40;12.80;;;8.82;;
60078;SDS011;45951;45.824;8.824;2022-12-18T02:04:46;14.00;;;8.70;;
60078;SDS011;45951;45.824;8.824;2022-12-18T02:17:16;11.55;;;7.45;;
60078;SDS011;45951;45.824;8.824;2022-12-18T02:29:38;8.48;;;4.88;;
60078;SDS011;45951;45.824;8.824;2022-12-18T02:35:41;8.98;;;6.25;;
60078;SDS011;45951;45.824;8.824;2022-12-18T02:41:42;9.18;;;5.85;;
60078;SDS011;45951;45.824;8.824;2022-12-18T02:47:43;8.65;;;5.32;;
60078;SDS011;45951;45.824;8.824;2022-12-18T02:53:53;8.43;;;5.88;;
60078;SDS011;45951;45.824;8.824;2022-12-18T02:59:58;9.20;;;5.90;;
60078;SDS011;45951;45.824;8.824;2022-12-18T03:06:05;10.45;;;7.22;;
60078;SDS011;45951;45.824;8.824;2022-12-18T03:18:46;9.85;;;6.63;;
60078;SDS011;45951;45.824;8.824;2022-12-18T03:24:51;8.50;;;5.00;;
60078;SDS011;45951;45.824;8.824;2022-12-18T03:30:55;10.05;;;6.82;;
60078;SDS011;45951;45.824;8.824;2022-12-18T03:36:57;10.80;;;6.88;;
60078;SDS011;45951;45.824;8.824;2022-12-18T03:43:07;11.10;;;7.32;;
60078;SDS011;45951;45.824;8.824;2022-12-18T03:49:25;15.75;;;8.45;;
60078;SDS011;45951;45.824;8.824;2022-12-18T03:55:35;9.05;;;5.78;;
60078;SDS011;45951;45.824;8.824;2022-12-18T04:01:37;8.75;;;5.35;;
60078;SDS011;45951;45.824;8.824;2022-12-18T04:07:39;8.35;;;4.97;;
60078;SDS011;45951;45.824;8.824;2022-12-18T04:13:40;8.10;;;5.15;;
60078;SDS011;45951;45.824;8.824;2022-12-18T04:19:42;7.22;;;4.82;;
60078;SDS011;45951;45.824;8.824;2022-12-18T04:25:42;6.70;;;4.75;;
60078;SDS011;45951;45.824;8.824;2022-12-18T04:31:43;7.90;;;5.60;;
60078;SDS011;45951;45.824;8.824;2022-12-18T04:37:43;8.23;;;5.65;;
60078;SDS011;45951;45.824;8.824;2022-12-18T04:43:43;6.57;;;4.40;;
60078;SDS011;45951;45.824;8.824;2022-12-18T04:49:43;7.68;;;4.97;;
60078;SDS011;45951;45.824;8.824;2022-12-18T04:55:44;6.30;;;3.88;;
60078;SDS011;45951;45.824;8.824;2022-12-18T05:01:44;7.03;;;4.18;;
60078;SDS011;45951;45.824;8.824;2022-12-18T05:07:45;6.20;;;3.88;;
60078;SDS011;45951;45.824;8.824;2022-12-18T05:13:46;7.03;;;3.75;;
60078;SDS011;45951;45.824;8.824;2022-12-18T05:19:46;6.60;;;3.97;;
60078;SDS011;45951;45.824;8.824;2022-12-18T05:25:56;6.90;;;3.90;;
60078;SDS011;45951;45.824;8.824;2022-12-18T05:31:57;6.45;;;3.80;;
60078;SDS011;45951;45.824;8.824;2022-12-18T05:37:58;6.65;;;4.18;;
60078;SDS011;45951;45.824;8.824;2022-12-18T05:43:58;6.18;;;3.90;;
60078;SDS011;45951;45.824;8.824;2022-12-18T05:49:59;7.00;;;4.10;;
60078;SDS011;45951;45.824;8.824;2022-12-18T05:56:00;7.97;;;5.05;;
60078;SDS011;45951;45.824;8.824;2022-12-18T06:02:01;6.65;;;4.22;;
60078;SDS011;45951;45.824;8.824;2022-12-18T06:08:02;6.90;;;4.50;;
60078;SDS011;45951;45.824;8.824;2022-12-18T06:14:03;7.00;;;4.13;;
60078;SDS011;45951;45.824;8.824;2022-12-18T06:20:04;8.63;;;5.43;;
60078;SDS011;45951;45.824;8.824;2022-12-18T06:26:07;7.28;;;4.57;;
60078;SDS011;45951;45.824;8.824;2022-12-18T06:32:09;7.28;;;4.80;;
60078;SDS011;45951;45.824;8.824;2022-12-18T06:38:09;7.57;;;4.97;;
60078;SDS011;45951;45.824;8.824;2022-12-18T06:44:09;7.13;;;4.50;;
60078;SDS011;45951;45.824;8.824;2022-12-18T06:50:10;7.93;;;4.57;;
60078;SDS011;45951;45.824;8.824;2022-12-18T06:56:11;6.45;;;4.22;;
60078;SDS011;45951;45.824;8.824;2022-12-18T07:02:11;6.80;;;4.40;;
60078;SDS011;45951;45.824;8.824;2022-12-18T07:08:12;6.25;;;4.05;;
60078;SDS011;45951;45.824;8.824;2022-12-18T07:14:12;7.45;;;4.10;;
60078;SDS011;45951;45.824;8.824;2022-12-18T07:20:13;6.60;;;3.47;;
60078;SDS011;45951;45.824;8.824;2022-12-18T07:26:14;6.82;;;3.83;;
60078;SDS011;45951;45.824;8.824;2022-12-18T07:32:15;6.07;;;3.75;;
60078;SDS011;45951;45.824;8.824;2022-12-18T07:38:15;7.40;;;4.50;;
60078;SDS011;45951;45.824;8.824;2022-12-18T07:44:16;7.53;;;4.82;;
60078;SDS011;45951;45.824;8.824;2022-12-18T07:50:16;7.60;;;4.55;;
60078;SDS011;45951;45.824;8.824;2022-12-18T07:56:16;8.85;;;4.55;;
60078;SDS011;45951;45.824;8.824;2022-12-18T08:02:17;5.88;;;3.40;;
60078;SDS011;45951;45.824;8.824;2022-12-18T08:08:17;8.13;;;3.83;;
60078;SDS011;45951;45.824;8.824;2022-12-18T08:14:17;7.07;;;4.13;;
60078;SDS011;45951;45.824;8.824;2022-12-18T08:20:17;6.82;;;3.97;;
60078;SDS011;45951;45.824;8.824;2022-12-18T08:26:18;7.23;;;3.60;;
60078;SDS011;45951;45.824;8.824;2022-12-18T08:32:19;8.57;;;3.53;;
60078;SDS011;45951;45.824;8.824;2022-12-18T08:38:19;7.07;;;3.65;;
60078;SDS011;45951;45.824;8.824;2022-12-18T08:44:20;4.72;;;2.75;;
60078;SDS011;45951;45.824;8.824;2022-12-18T08:50:39;5.10;;;3.13;;
60078;SDS011;45951;45.824;8.824;2022-12-18T08:56:39;6.63;;;3.53;;
60078;SDS011;45951;45.824;8.824;2022-12-18T09:02:39;6.05;;;3.78;;
60078;SDS011;45951;45.824;8.824;2022-12-18T09:08:40;5.53;;;3.30;;
60078;SDS011;45951;45.824;8.824;2022-12-18T09:14:40;5.68;;;3.30;;
60078;SDS011;45951;45.824;8.824;2022-12-18T09:20:41;8.90;;;4.63;;
60078;SDS011;45951;45.824;8.824;2022-12-18T09:26:41;6.75;;;4.07;;
60078;SDS011;45951;45.824;8.824;2022-12-18T09:32:41;7.03;;;4.00;;
60078;SDS011;45951;45.824;8.824;2022-12-18T09:38:42;7.38;;;4.40;;
60078;SDS011;45951;45.824;8.824;2022-12-18T09:44:43;5.45;;;3.08;;
60078;SDS011;45951;45.824;8.824;2022-12-18T09:50:46;5.70;;;3.85;;
60078;SDS011;45951;45.824;8.824;2022-12-18T09:56:47;7.18;;;4.28;;
60078;SDS011;45951;45.824;8.824;2022-12-18T10:02:47;7.15;;;4.72;;
60078;SDS011;45951;45.824;8.824;2022-12-18T10:08:51;8.32;;;5.10;;
60078;SDS011;45951;45.824;8.824;2022-12-18T10:21:12;9.52;;;5.82;;
60078;SDS011;45951;45.824;8.824;2022-12-18T10:27:16;9.57;;;6.43;;
60078;SDS011;45951;45.824;8.824;2022-12-18T10:33:20;9.50;;;5.65;;
60078;SDS011;45951;45.824;8.824;2022-12-18T10:39:23;11.35;;;6.55;;
60078;SDS011;45951;45.824;8.824;2022-12-18T10:45:26;10.48;;;6.90;;
60078;SDS011;45951;45.824;8.824;2022-12-18T10:51:30;9.77;;;6.57;;
60078;SDS011;45951;45.824;8.824;2022-12-18T10:57:40;8.00;;;5.25;;
60078;SDS011;45951;45.824;8.824;2022-12-18T11:09:45;10.48;;;5.57;;
60078;SDS011;45951;45.824;8.824;2022-12-18T11:16:00;9.00;;;5.07;;
60078;SDS011;45951;45.824;8.824;2022-12-18T11:22:00;9.07;;;5.90;;
60078;SDS011;45951;45.824;8.824;2022-12-18T11:28:03;12.43;;;6.40;;
60078;SDS011;45951;45.824;8.824;2022-12-18T11:40:19;9.25;;;5.90;;
60078;SDS011;45951;45.824;8.824;2022-12-18T11:46:26;8.85;;;5.70;;
60078;SDS011;45951;45.824;8.824;2022-12-18T11:52:39;9.93;;;6.43;;
60078;SDS011;45951;45.824;8.824;2022-12-18T11:58:47;11.07;;;6.60;;
60078;SDS011;45951;45.824;8.824;2022-12-18T12:29:46;11.32;;;8.88;;
60078;SDS011;45951;45.824;8.824;2022-12-18T12:42:20;10.35;;;7.72;;
60078;SDS011;45951;45.824;8.824;2022-12-18T12:55:02;15.07;;;9.90;;
60078;SDS011;45951;45.824;8.824;2022-12-18T13:01:08;13.68;;;9.30;;
60078;SDS011;45951;45.824;8.824;2022-12-18T13:13:21;15.10;;;10.98;;
60078;SDS011;45951;45.824;8.824;2022-12-18T13:19:22;16.13;;;10.48;;
60078;SDS011;45951;45.824;8.824;2022-12-18T13:37:42;17.50;;;10.63;;
60078;SDS011;45951;45.824;8.824;2022-12-18T13:43:54;17.08;;;11.65;;
60078;SDS011;45951;45.824;8.824;2022-12-18T13:49:58;18.67;;;12.52;;
60078;SDS011;45951;45.824;8.824;2022-12-18T13:55:58;18.83;;;12.50;;
60078;SDS011;45951;45.824;8.824;2022-12-18T14:02:00;20.50;;;14.00;;
60078;SDS011;45951;45.824;8.824;2022-12-18T14:14:08;19.35;;;13.02;;
60078;SDS011;45951;45.824;8.824;2022-12-18T14:20:13;18.73;;;12.52;;
60078;SDS011;45951;45.824;8.824;2022-12-18T14:26:22;15.48;;;11.43;;
60078;SDS011;45951;45.824;8.824;2022-12-18T14:32:27;17.85;;;12.25;;
60078;SDS011;45951;45.824;8.824;2022-12-18T14:50:33;18.50;;;13.60;;
60078;SDS011;45951;45.824;8.824;2022-12-18T14:56:35;19.90;;;12.73;;
60078;SDS011;45951;45.824;8.824;2022-12-18T15:02:36;23.95;;;14.02;;
60078;SDS011;45951;45.824;8.824;2022-12-18T15:08:37;19.93;;;14.63;;
60078;SDS011;45951;45.824;8.824;2022-12-18T15:14:40;20.27;;;14.18;;
60078;SDS011;45951;45.824;8.824;2022-12-18T15:20:45;19.85;;;13.95;;
60078;SDS011;45951;45.824;8.824;2022-12-18T15:26:48;17.88;;;12.32;;
60078;SDS011;45951;45.824;8.824;2022-12-18T15:32:49;18.08;;;13.27;;
60078;SDS011;45951;45.824;8.824;2022-12-18T15:38:50;20.02;;;13.32;;
60078;SDS011;45951;45.824;8.824;2022-12-18T15:44:52;20.17;;;13.10;;
60078;SDS011;45951;45.824;8.824;2022-12-18T15:50:52;19.02;;;13.60;;
60078;SDS011;45951;45.824;8.824;2022-12-18T15:56:55;20.90;;;12.98;;
60078;SDS011;45951;45.824;8.824;2022-12-18T16:03:14;17.25;;;12.88;;
60078;SDS011;45951;45.824;8.824;2022-12-18T16:09:14;19.63;;;12.85;;
60078;SDS011;45951;45.824;8.824;2022-12-18T16:15:15;19.48;;;12.88;;
60078;SDS011;45951;45.824;8.824;2022-12-18T16:21:16;18.45;;;12.38;;
60078;SDS011;45951;45.824;8.824;2022-12-18T16:27:16;17.13;;;12.07;;
60078;SDS011;45951;45.824;8.824;2022-12-18T16:33:16;18.55;;;11.55;;
60078;SDS011;45951;45.824;8.824;2022-12-18T16:39:17;19.38;;;11.93;;
60078;SDS011;45951;45.824;8.824;2022-12-18T16:45:17;17.58;;;12.10;;
60078;SDS011;45951;45.824;8.824;2022-12-18T16:51:18;18.67;;;12.50;;
60078;SDS011;45951;45.824;8.824;2022-12-18T16:57:19;20.83;;;14.80;;
60078;SDS011;45951;45.824;8.824;2022-12-18T17:03:20;22.42;;;15.98;;
60078;SDS011;45951;45.824;8.824;2022-12-18T17:09:20;25.90;;;16.42;;
60078;SDS011;45951;45.824;8.824;2022-12-18T17:15:26;19.83;;;13.77;;
60078;SDS011;45951;45.824;8.824;2022-12-18T17:21:26;22.88;;;15.10;;
60078;SDS011;45951;45.824;8.824;2022-12-18T17:27:27;20.80;;;14.68;;
60078;SDS011;45951;45.824;8.824;2022-12-18T17:33:28;23.37;;;14.67;;
60078;SDS011;45951;45.824;8.824;2022-12-18T17:39:28;22.35;;;15.60;;
60078;SDS011;45951;45.824;8.824;2022-12-18T17:45:29;23.13;;;15.93;;
60078;SDS011;45951;45.824;8.824;2022-12-18T17:51:30;22.20;;;15.10;;
60078;SDS011;45951;45.824;8.824;2022-12-18T17:57:30;19.77;;;14.18;;
60078;SDS011;45951;45.824;8.824;2022-12-18T18:03:31;19.58;;;14.10;;
60078;SDS011;45951;45.824;8.824;2022-12-18T18:09:34;21.85;;;14.65;;
60078;SDS011;45951;45.824;8.824;2022-12-18T18:15:34;20.20;;;14.70;;
60078;SDS011;45951;45.824;8.824;2022-12-18T18:21:37;19.43;;;14.03;;
60078;SDS011;45951;45.824;8.824;2022-12-18T18:27:38;20.35;;;14.32;;
60078;SDS011;45951;45.824;8.824;2022-12-18T18:33:39;20.23;;;14.27;;
60078;SDS011;45951;45.824;8.824;2022-12-18T18:39:39;18.70;;;13.52;;
60078;SDS011;45951;45.824;8.824;2022-12-18T18:45:40;17.92;;;12.95;;
60078;SDS011;45951;45.824;8.824;2022-12-18T18:51:41;22.33;;;13.65;;
60078;SDS011;45951;45.824;8.824;2022-12-18T18:57:41;19.27;;;13.73;;
60078;SDS011;45951;45.824;8.824;2022-12-18T19:03:42;21.03;;;13.70;;
60078;SDS011;45951;45.824;8.824;2022-12-18T19:09:42;17.50;;;13.30;;
60078;SDS011;45951;45.824;8.824;2022-12-18T19:15:44;20.13;;;14.30;;
60078;SDS011;45951;45.824;8.824;2022-12-18T19:21:45;21.40;;;14.50;;
60078;SDS011;45951;45.824;8.824;2022-12-18T19:27:45;22.88;;;14.75;;
60078;SDS011;45951;45.824;8.824;2022-12-18T19:33:46;24.40;;;15.85;;
60078;SDS011;45951;45.824;8.824;2022-12-18T19:39:47;28.52;;;17.70;;
60078;SDS011;45951;45.824;8.824;2022-12-18T19:45:53;25.27;;;17.23;;
60078;SDS011;45951;45.824;8.824;2022-12-18T19:51:54;26.23;;;17.98;;
60078;SDS011;45951;45.824;8.824;2022-12-18T19:57:55;23.70;;;16.90;;
60078;SDS011;45951;45.824;8.824;2022-12-18T20:03:56;24.58;;;16.90;;
60078;SDS011;45951;45.824;8.824;2022-12-18T20:09:56;23.17;;;16.50;;
60078;SDS011;45951;45.824;8.824;2022-12-18T20:15:57;20.42;;;15.13;;
60078;SDS011;45951;45.824;8.824;2022-12-18T20:21:57;22.10;;;16.27;;
60078;SDS011;45951;45.824;8.824;2022-12-18T20:27:58;22.75;;;15.90;;
60078;SDS011;45951;45.824;8.824;2022-12-18T20:33:58;18.70;;;13.43;;
60078;SDS011;45951;45.824;8.824;2022-12-18T20:39:59;18.33;;;13.57;;
60078;SDS011;45951;45.824;8.824;2022-12-18T20:46:03;22.38;;;16.33;;
60078;SDS011;45951;45.824;8.824;2022-12-18T20:52:04;28.77;;;17.45;;
60078;SDS011;45951;45.824;8.824;2022-12-18T20:58:05;23.40;;;17.15;;
60078;SDS011;45951;45.824;8.824;2022-12-18T21:04:05;26.30;;;17.67;;
60078;SDS011;45951;45.824;8.824;2022-12-18T21:10:05;26.63;;;17.30;;
60078;SDS011;45951;45.824;8.824;2022-12-18T21:16:06;22.95;;;16.00;;
60078;SDS011;45951;45.824;8.824;2022-12-18T21:22:06;22.23;;;15.13;;
60078;SDS011;45951;45.824;8.824;2022-12-18T21:28:06;22.47;;;14.90;;
60078;SDS011;45951;45.824;8.824;2022-12-18T21:34:08;23.90;;;14.60;;
60078;SDS011;45951;45.824;8.824;2022-12-18T21:40:09;24.40;;;15.93;;
60078;SDS011;45951;45.824;8.824;2022-12-18T21:46:10;24.38;;;16.30;;
60078;SDS011;45951;45.824;8.824;2022-12-18T21:52:10;20.70;;;15.05;;
60078;SDS011;45951;45.824;8.824;2022-12-18T21:58:11;19.63;;;13.87;;
60078;SDS011;45951;45.824;8.824;2022-12-18T22:04:11;23.13;;;16.15;;
60078;SDS011;45951;45.824;8.824;2022-12-18T22:10:12;19.60;;;14.48;;
60078;SDS011;45951;45.824;8.824;2022-12-18T22:16:12;20.67;;;13.68;;
60078;SDS011;45951;45.824;8.824;2022-12-18T22:22:13;18.30;;;13.30;;
60078;SDS011;45951;45.824;8.824;2022-12-18T22:28:13;17.95;;;12.43;;
60078;SDS011;45951;45.824;8.824;2022-12-18T22:34:32;19.05;;;14.20;;
60078;SDS011;45951;45.824;8.824;2022-12-18T22:40:33;20.27;;;12.98;;
60078;SDS011;45951;45.824;8.824;2022-12-18T22:46:34;18.77;;;13.00;;
60078;SDS011;45951;45.824;8.824;2022-12-18T22:52:36;18.17;;;13.43;;
60078;SDS011;45951;45.824;8.824;2022-12-18T22:58:37;19.40;;;12.25;;
60078;SDS011;45951;45.824;8.824;2022-12-18T23:04:37;17.73;;;11.68;;
60078;SDS011;45951;45.824;8.824;2022-12-18T23:10:38;18.33;;;12.75;;
60078;SDS011;45951;45.824;8.824;2022-12-18T23:16:39;16.47;;;11.93;;
60078;SDS011;45951;45.824;8.824;2022-12-18T23:22:39;17.55;;;11.45;;
60078;SDS011;45951;45.824;8.824;2022-12-18T23:28:40;18.27;;;12.43;;
60078;SDS011;45951;45.824;8.824;2022-12-18T23:34:41;17.75;;;11.98;;
60078;SDS011;45951;45.824;8.824;2022-12-18T23:40:41;18.73;;;11.07;;
60078;SDS011;45951;45.824;8.824;2022-12-18T23:46:41;16.73;;;10.90;;
60078;SDS011;45951;45.824;8.824;2022-12-18T23:52:42;16.00;;;10.50;;
60078;SDS011;45951;45.824;8.824;2022-12-18T23:58:42;14.52;;;9.88;;
